KCUT

Details ICAO KCUT
Name CUSTER COUNTY
Region United States
Timezone America/Denver (UTC-7.0)
Plans Departing 5
Arriving 3
Stats Elevation 5,602 ft / 1,707 m (AMSL)
Location 43.733096° -103.619235°
Runways 1
Magnetic Variation 7.752° E
Sunrise 2017-12-13 14:21:29 UTC / 2017-12-13 07:21:29 Local
Sunset 2017-12-13 23:18:59 UTC / 2017-12-13 16:18:59 Local
Advertisement - Login to hide

Runways

ID Width Length Bearing (true) Bearing (mag) Surface Threshold Offset Overrun Length
08 60 ft / 18 m 5,487 ft / 1,672 m 83.91° 76.16° Asphalt 0 ft / 0 m 0 ft / 0 m
26 60 ft / 18 m 5,487 ft / 1,672 m 263.93° 256.18° Asphalt 0 ft / 0 m 0 ft / 0 m

Map

Weather


0- 5 10 15 20 25 30 35+ Temperature / ° C

Clouds and Precipitation
Forecast for 2017-12-13 12:00 UTC. Updated 2 hours ago

Ground ~20,000 ft ~40,000 ft Winds

METAR

KCUT 131253Z AUTO 32011G26KT 10SM CLR 02/M12 A2999 RMK AO2 PK WND 30026/1251 SLP145 T00221122

TAF

Not found

Frequencies

Recorded 120.00 MHz ASOS
Unicom 122.80 MHz CTAF/UNICOM
Warning: Do not use this data for real-world aviation or navigation. No guarantee of current accuracy is given.